sensor_id;sensor_type;location;lat;lon;timestamp;pressure;altitude;pressure_sealevel;temperature;humidity
66398;BME280;54877;51.504;3.894;2024-03-07T00:02:14;102591.16;;;9.44;68.75
66398;BME280;54877;51.504;3.894;2024-03-07T00:04:39;102598.22;;;9.45;68.62
66398;BME280;54877;51.504;3.894;2024-03-07T00:07:05;102607.91;;;9.45;68.77
66398;BME280;54877;51.504;3.894;2024-03-07T00:09:32;102599.13;;;9.43;68.80
66398;BME280;54877;51.504;3.894;2024-03-07T00:11:58;102602.63;;;9.45;68.87
66398;BME280;54877;51.504;3.894;2024-03-07T00:14:24;102605.31;;;9.43;68.52
66398;BME280;54877;51.504;3.894;2024-03-07T00:16:53;102599.13;;;9.43;68.89
66398;BME280;54877;51.504;3.894;2024-03-07T00:19:21;102606.22;;;9.41;68.84
66398;BME280;54877;51.504;3.894;2024-03-07T00:21:47;102603.69;;;9.35;68.89
66398;BME280;54877;51.504;3.894;2024-03-07T00:24:13;102597.59;;;9.30;69.05
66398;BME280;54877;51.504;3.894;2024-03-07T00:26:39;102602.94;;;9.25;69.31
66398;BME280;54877;51.504;3.894;2024-03-07T00:29:05;102593.34;;;9.20;69.36
66398;BME280;54877;51.504;3.894;2024-03-07T00:31:31;102603.97;;;9.18;69.67
66398;BME280;54877;51.504;3.894;2024-03-07T00:33:57;102596.91;;;9.17;69.79
66398;BME280;54877;51.504;3.894;2024-03-07T00:36:23;102598.72;;;9.15;69.77
66398;BME280;54877;51.504;3.894;2024-03-07T00:38:48;102596.91;;;9.17;69.64
66398;BME280;54877;51.504;3.894;2024-03-07T00:41:14;102597.78;;;9.19;69.90
66398;BME280;54877;51.504;3.894;2024-03-07T00:43:40;102589.88;;;9.19;69.93
66398;BME280;54877;51.504;3.894;2024-03-07T00:46:06;102592.50;;;9.19;69.71
66398;BME280;54877;51.504;3.894;2024-03-07T00:48:32;102589.91;;;9.16;69.54
66398;BME280;54877;51.504;3.894;2024-03-07T00:50:57;102596.06;;;9.17;69.64
66398;BME280;54877;51.504;3.894;2024-03-07T00:53:24;102597.09;;;9.08;70.23
66398;BME280;54877;51.504;3.894;2024-03-07T00:55:49;102591.75;;;9.11;69.76
66398;BME280;54877;51.504;3.894;2024-03-07T00:58:14;102595.28;;;9.10;69.87
66398;BME280;54877;51.504;3.894;2024-03-07T01:00:40;102589.16;;;9.08;69.77
66398;BME280;54877;51.504;3.894;2024-03-07T01:03:15;102587.44;;;9.04;70.05
66398;BME280;54877;51.504;3.894;2024-03-07T01:05:42;102583.88;;;9.07;69.94
66398;BME280;54877;51.504;3.894;2024-03-07T01:08:08;102581.28;;;9.05;69.84
66398;BME280;54877;51.504;3.894;2024-03-07T01:10:33;102578.69;;;9.02;70.12
66398;BME280;54877;51.504;3.894;2024-03-07T01:12:58;102571.69;;;9.00;69.93
66398;BME280;54877;51.504;3.894;2024-03-07T01:15:30;102580.47;;;9.00;69.91
66398;BME280;54877;51.504;3.894;2024-03-07T01:17:57;102580.44;;;9.02;69.73
66398;BME280;54877;51.504;3.894;2024-03-07T01:20:22;102577.88;;;8.97;70.06
66398;BME280;54877;51.504;3.894;2024-03-07T01:22:50;102570.81;;;8.99;69.75
66398;BME280;54877;51.504;3.894;2024-03-07T01:25:16;102569.09;;;8.95;70.32
66398;BME280;54877;51.504;3.894;2024-03-07T01:27:42;102569.97;;;8.96;69.96
66398;BME280;54877;51.504;3.894;2024-03-07T01:30:07;102565.56;;;8.96;69.87
66398;BME280;54877;51.504;3.894;2024-03-07T01:32:34;102565.56;;;8.96;70.07
66398;BME280;54877;51.504;3.894;2024-03-07T01:34:59;102562.16;;;8.88;70.11
66398;BME280;54877;51.504;3.894;2024-03-07T01:37:25;102560.38;;;8.90;70.06
66398;BME280;54877;51.504;3.894;2024-03-07T01:39:51;102550.78;;;8.84;69.95
66398;BME280;54877;51.504;3.894;2024-03-07T01:42:17;102554.34;;;8.82;70.28
66398;BME280;54877;51.504;3.894;2024-03-07T01:44:42;102557.91;;;8.79;70.44
66398;BME280;54877;51.504;3.894;2024-03-07T01:47:09;102560.66;;;8.72;70.40
66398;BME280;54877;51.504;3.894;2024-03-07T01:49:34;102562.34;;;8.76;70.50
66398;BME280;54877;51.504;3.894;2024-03-07T01:52:00;102565.84;;;8.78;70.71
66398;BME280;54877;51.504;3.894;2024-03-07T01:54:30;102555.22;;;8.81;70.35
66398;BME280;54877;51.504;3.894;2024-03-07T01:56:55;102556.09;;;8.81;70.62
66398;BME280;54877;51.504;3.894;2024-03-07T01:59:20;102552.69;;;8.75;70.46
66398;BME280;54877;51.504;3.894;2024-03-07T02:01:47;102555.25;;;8.79;70.78
66398;BME280;54877;51.504;3.894;2024-03-07T02:04:12;102556.19;;;8.77;70.61
66398;BME280;54877;51.504;3.894;2024-03-07T02:06:39;102550.91;;;8.77;70.53
66398;BME280;54877;51.504;3.894;2024-03-07T02:09:04;102552.66;;;8.76;70.55
66398;BME280;54877;51.504;3.894;2024-03-07T02:11:30;102554.47;;;8.74;70.57
66398;BME280;54877;51.504;3.894;2024-03-07T02:13:56;102541.22;;;8.76;70.75
66398;BME280;54877;51.504;3.894;2024-03-07T02:16:21;102539.50;;;8.75;70.65
66398;BME280;54877;51.504;3.894;2024-03-07T02:18:47;102539.50;;;8.75;70.69
66398;BME280;54877;51.504;3.894;2024-03-07T02:21:15;102542.09;;;8.78;70.46
66398;BME280;54877;51.504;3.894;2024-03-07T02:23:40;102539.38;;;8.81;70.32
66398;BME280;54877;51.504;3.894;2024-03-07T02:26:06;102535.00;;;8.80;70.25
66398;BME280;54877;51.504;3.894;2024-03-07T02:28:33;102535.00;;;8.80;70.28
66398;BME280;54877;51.504;3.894;2024-03-07T02:30:58;102528.88;;;8.78;70.09
66398;BME280;54877;51.504;3.894;2024-03-07T02:33:24;102527.13;;;8.77;70.31
66398;BME280;54877;51.504;3.894;2024-03-07T02:35:49;102527.13;;;8.77;70.10
66398;BME280;54877;51.504;3.894;2024-03-07T02:38:14;102525.47;;;8.70;70.31
66398;BME280;54877;51.504;3.894;2024-03-07T02:40:40;102521.06;;;8.70;70.13
66398;BME280;54877;51.504;3.894;2024-03-07T02:43:05;102516.69;;;8.68;70.36
66398;BME280;54877;51.504;3.894;2024-03-07T02:45:32;102522.03;;;8.65;70.24
66398;BME280;54877;51.504;3.894;2024-03-07T02:47:57;102513.22;;;8.66;70.29
66398;BME280;54877;51.504;3.894;2024-03-07T02:50:22;102509.75;;;8.64;70.35
66398;BME280;54877;51.504;3.894;2024-03-07T02:52:48;102514.16;;;8.62;70.62
66398;BME280;54877;51.504;3.894;2024-03-07T02:55:14;102517.66;;;8.62;70.43
66398;BME280;54877;51.504;3.894;2024-03-07T02:57:40;102514.16;;;8.62;70.66
66398;BME280;54877;51.504;3.894;2024-03-07T03:00:06;102508.88;;;8.62;70.65
66398;BME280;54877;51.504;3.894;2024-03-07T03:02:44;102515.06;;;8.61;70.50
66398;BME280;54877;51.504;3.894;2024-03-07T03:05:10;102508.88;;;8.62;70.70
66398;BME280;54877;51.504;3.894;2024-03-07T03:07:35;102497.47;;;8.61;70.50
66398;BME280;54877;51.504;3.894;2024-03-07T03:10:02;102500.09;;;8.61;70.35
66398;BME280;54877;51.504;3.894;2024-03-07T03:12:32;102494.81;;;8.61;70.50
66398;BME280;54877;51.504;3.894;2024-03-07T03:14:57;102500.09;;;8.61;70.53
66398;BME280;54877;51.504;3.894;2024-03-07T03:17:22;102490.38;;;8.62;70.46
66398;BME280;54877;51.504;3.894;2024-03-07T03:19:48;102492.13;;;8.63;70.28
66398;BME280;54877;51.504;3.894;2024-03-07T03:22:15;102485.06;;;8.65;70.23
66398;BME280;54877;51.504;3.894;2024-03-07T03:24:40;102493.06;;;8.60;70.29
66398;BME280;54877;51.504;3.894;2024-03-07T03:27:06;102485.09;;;8.62;70.54
66398;BME280;54877;51.504;3.894;2024-03-07T03:29:33;102479.91;;;8.59;70.34
66398;BME280;54877;51.504;3.894;2024-03-07T03:31:59;102479.94;;;8.56;70.40
66398;BME280;54877;51.504;3.894;2024-03-07T03:34:24;102474.72;;;8.53;70.77
66398;BME280;54877;51.504;3.894;2024-03-07T03:36:51;102472.13;;;8.48;70.65
66398;BME280;54877;51.504;3.894;2024-03-07T03:39:16;102472.16;;;8.47;70.95
66398;BME280;54877;51.504;3.894;2024-03-07T03:41:42;102464.31;;;8.41;71.31
66398;BME280;54877;51.504;3.894;2024-03-07T03:44:07;102467.84;;;8.40;71.35
66398;BME280;54877;51.504;3.894;2024-03-07T03:46:32;102466.16;;;8.36;71.34
66398;BME280;54877;51.504;3.894;2024-03-07T03:48:58;102463.50;;;8.37;71.59
66398;BME280;54877;51.504;3.894;2024-03-07T03:51:23;102469.59;;;8.41;71.30
66398;BME280;54877;51.504;3.894;2024-03-07T03:53:50;102470.44;;;8.43;71.13
66398;BME280;54877;51.504;3.894;2024-03-07T03:56:16;102459.88;;;8.43;71.43
66398;BME280;54877;51.504;3.894;2024-03-07T03:58:42;102469.53;;;8.45;71.21
66398;BME280;54877;51.504;3.894;2024-03-07T04:01:08;102463.44;;;8.42;71.32
66398;BME280;54877;51.504;3.894;2024-03-07T04:03:37;102465.22;;;8.40;70.94
66398;BME280;54877;51.504;3.894;2024-03-07T04:06:03;102462.63;;;8.37;71.54
66398;BME280;54877;51.504;3.894;2024-03-07T04:08:29;102458.31;;;8.31;71.52
66398;BME280;54877;51.504;3.894;2024-03-07T04:10:55;102459.13;;;8.35;71.33
66398;BME280;54877;51.504;3.894;2024-03-07T04:13:20;102459.13;;;8.35;71.37
66398;BME280;54877;51.504;3.894;2024-03-07T04:15:47;102464.50;;;8.28;71.60
66398;BME280;54877;51.504;3.894;2024-03-07T04:18:12;102466.25;;;8.30;71.40
66398;BME280;54877;51.504;3.894;2024-03-07T04:20:38;102475.03;;;8.30;71.71
66398;BME280;54877;51.504;3.894;2024-03-07T04:23:04;102468.94;;;8.25;71.88
66398;BME280;54877;51.504;3.894;2024-03-07T04:25:30;102469.88;;;8.19;72.35
66398;BME280;54877;51.504;3.894;2024-03-07T04:27:58;102469.94;;;8.16;72.40
66398;BME280;54877;51.504;3.894;2024-03-07T04:30:23;102467.28;;;8.15;72.54
66398;BME280;54877;51.504;3.894;2024-03-07T04:32:48;102462.91;;;8.15;72.80
66398;BME280;54877;51.504;3.894;2024-03-07T04:35:14;102462.94;;;8.14;72.67
66398;BME280;54877;51.504;3.894;2024-03-07T04:37:39;102471.75;;;8.11;72.93
66398;BME280;54877;51.504;3.894;2024-03-07T04:40:06;102466.56;;;8.05;73.06
66398;BME280;54877;51.504;3.894;2024-03-07T04:42:41;102463.13;;;7.99;73.26
66398;BME280;54877;51.504;3.894;2024-03-07T04:45:07;102471.94;;;7.96;73.60
66398;BME280;54877;51.504;3.894;2024-03-07T04:47:35;102466.72;;;7.93;73.54
66398;BME280;54877;51.504;3.894;2024-03-07T04:50:01;102470.34;;;7.86;74.05
66398;BME280;54877;51.504;3.894;2024-03-07T04:52:26;102470.41;;;7.80;74.03
66398;BME280;54877;51.504;3.894;2024-03-07T04:54:51;102476.53;;;7.82;74.15
66398;BME280;54877;51.504;3.894;2024-03-07T04:57:17;102458.19;;;7.73;74.05
66398;BME280;54877;51.504;3.894;2024-03-07T04:59:44;102475.75;;;7.76;73.95
66398;BME280;54877;51.504;3.894;2024-03-07T05:02:09;102472.22;;;7.75;73.94
66398;BME280;54877;51.504;3.894;2024-03-07T05:04:34;102472.28;;;7.69;74.25
66398;BME280;54877;51.504;3.894;2024-03-07T05:07:00;102463.50;;;7.70;73.96
66398;BME280;54877;51.504;3.894;2024-03-07T05:09:27;102467.06;;;7.66;74.30
66398;BME280;54877;51.504;3.894;2024-03-07T05:11:53;102469.75;;;7.61;74.70
66398;BME280;54877;51.504;3.894;2024-03-07T05:14:19;102477.66;;;7.60;74.68
66398;BME280;54877;51.504;3.894;2024-03-07T05:16:45;102467.03;;;7.69;74.19
66398;BME280;54877;51.504;3.894;2024-03-07T05:19:11;102468.88;;;7.61;73.98
66398;BME280;54877;51.504;3.894;2024-03-07T05:21:36;102465.28;;;7.65;74.08
66398;BME280;54877;51.504;3.894;2024-03-07T05:24:07;102468.84;;;7.64;73.90
66398;BME280;54877;51.504;3.894;2024-03-07T05:26:36;102465.38;;;7.62;74.08
66398;BME280;54877;51.504;3.894;2024-03-07T05:29:07;102467.13;;;7.60;74.20
66398;BME280;54877;51.504;3.894;2024-03-07T05:31:34;102463.72;;;7.49;73.93
66398;BME280;54877;51.504;3.894;2024-03-07T05:34:04;102462.78;;;7.54;74.19
66398;BME280;54877;51.504;3.894;2024-03-07T05:36:33;102462.84;;;7.50;74.34
66398;BME280;54877;51.504;3.894;2024-03-07T05:39:08;102468.09;;;7.51;74.16
66398;BME280;54877;51.504;3.894;2024-03-07T05:41:35;102467.19;;;7.54;73.95
66398;BME280;54877;51.504;3.894;2024-03-07T05:44:01;102468.16;;;7.47;74.56
66398;BME280;54877;51.504;3.894;2024-03-07T05:46:26;102462.91;;;7.44;74.44
66398;BME280;54877;51.504;3.894;2024-03-07T05:48:52;102461.97;;;7.49;74.36
66398;BME280;54877;51.504;3.894;2024-03-07T05:51:21;102464.72;;;7.42;74.29
66398;BME280;54877;51.504;3.894;2024-03-07T05:53:48;102463.72;;;7.49;73.90
66398;BME280;54877;51.504;3.894;2024-03-07T05:56:13;102458.56;;;7.43;74.39
66398;BME280;54877;51.504;3.894;2024-03-07T05:58:39;102456.75;;;7.48;74.04
66398;BME280;54877;51.504;3.894;2024-03-07T06:01:04;102457.63;;;7.47;73.81
66398;BME280;54877;51.504;3.894;2024-03-07T06:03:30;102455.94;;;7.38;74.14
66398;BME280;54877;51.504;3.894;2024-03-07T06:05:55;102454.13;;;7.43;74.04
66398;BME280;54877;51.504;3.894;2024-03-07T06:08:21;102459.41;;;7.43;73.82
66398;BME280;54877;51.504;3.894;2024-03-07T06:10:46;102448.06;;;7.40;73.93
66398;BME280;54877;51.504;3.894;2024-03-07T06:13:13;102451.50;;;7.43;73.71
66398;BME280;54877;51.504;3.894;2024-03-07T06:15:40;102451.47;;;7.48;73.93
66398;BME280;54877;51.504;3.894;2024-03-07T06:18:08;102449.72;;;7.47;73.45
66398;BME280;54877;51.504;3.894;2024-03-07T06:20:35;102454.13;;;7.45;73.65
66398;BME280;54877;51.504;3.894;2024-03-07T06:23:02;102454.97;;;7.47;73.41
66398;BME280;54877;51.504;3.894;2024-03-07T06:25:30;102458.56;;;7.43;73.54
66398;BME280;54877;51.504;3.894;2024-03-07T06:28:02;102463.84;;;7.40;73.38
66398;BME280;54877;51.504;3.894;2024-03-07T06:30:36;102470.84;;;7.41;73.35
66398;BME280;54877;51.504;3.894;2024-03-07T06:33:02;102462.06;;;7.42;73.30
66398;BME280;54877;51.504;3.894;2024-03-07T06:35:28;102470.00;;;7.39;73.43
66398;BME280;54877;51.504;3.894;2024-03-07T06:37:53;102463.84;;;7.43;73.48
66398;BME280;54877;51.504;3.894;2024-03-07T06:40:19;102467.31;;;7.45;73.73
66398;BME280;54877;51.504;3.894;2024-03-07T06:42:47;102462.06;;;7.42;73.43
66398;BME280;54877;51.504;3.894;2024-03-07T06:45:13;102455.00;;;7.44;73.56
66398;BME280;54877;51.504;3.894;2024-03-07T06:47:38;102462.00;;;7.48;73.19
66398;BME280;54877;51.504;3.894;2024-03-07T06:50:03;102464.66;;;7.46;73.44
66398;BME280;54877;51.504;3.894;2024-03-07T06:52:29;102462.00;;;7.48;73.19
66398;BME280;54877;51.504;3.894;2024-03-07T06:54:54;102473.47;;;7.45;73.35
66398;BME280;54877;51.504;3.894;2024-03-07T06:57:20;102469.03;;;7.46;73.34
66398;BME280;54877;51.504;3.894;2024-03-07T06:59:46;102469.03;;;7.46;73.50
66398;BME280;54877;51.504;3.894;2024-03-07T07:02:11;102470.00;;;7.39;73.57
66398;BME280;54877;51.504;3.894;2024-03-07T07:04:36;102468.25;;;7.38;73.82
66398;BME280;54877;51.504;3.894;2024-03-07T07:07:09;102470.84;;;7.41;74.16
66398;BME280;54877;51.504;3.894;2024-03-07T07:09:37;102464.72;;;7.42;73.85
66398;BME280;54877;51.504;3.894;2024-03-07T07:12:03;102463.84;;;7.38;74.36
66398;BME280;54877;51.504;3.894;2024-03-07T07:14:28;102465.66;;;7.35;74.38
66398;BME280;54877;51.504;3.894;2024-03-07T07:16:54;102467.34;;;7.40;74.25
66398;BME280;54877;51.504;3.894;2024-03-07T07:19:20;102464.72;;;7.42;74.18
66398;BME280;54877;51.504;3.894;2024-03-07T07:21:46;102463.91;;;7.34;74.73
66398;BME280;54877;51.504;3.894;2024-03-07T07:24:12;102462.16;;;7.33;74.99
66398;BME280;54877;51.504;3.894;2024-03-07T07:26:38;102458.56;;;7.43;74.62
66398;BME280;54877;51.504;3.894;2024-03-07T07:29:03;102466.56;;;7.34;75.06
66398;BME280;54877;51.504;3.894;2024-03-07T07:31:29;102463.91;;;7.34;74.79
66398;BME280;54877;51.504;3.894;2024-03-07T07:33:57;102461.28;;;7.34;74.63
66398;BME280;54877;51.504;3.894;2024-03-07T07:36:22;102463.88;;;7.37;74.51
66398;BME280;54877;51.504;3.894;2024-03-07T07:38:48;102453.16;;;7.52;74.10
66398;BME280;54877;51.504;3.894;2024-03-07T07:41:13;102446.13;;;7.52;74.24
66398;BME280;54877;51.504;3.894;2024-03-07T07:43:39;102454.81;;;7.62;73.96
66398;BME280;54877;51.504;3.894;2024-03-07T07:46:05;102453.81;;;7.70;73.66
66398;BME280;54877;51.504;3.894;2024-03-07T07:48:31;102451.34;;;7.57;74.12
66398;BME280;54877;51.504;3.894;2024-03-07T07:50:56;102451.25;;;7.66;74.09
66398;BME280;54877;51.504;3.894;2024-03-07T07:53:21;102451.13;;;7.75;73.42
66398;BME280;54877;51.504;3.894;2024-03-07T07:55:46;102449.31;;;7.80;73.39
66398;BME280;54877;51.504;3.894;2024-03-07T07:58:13;102448.41;;;7.83;73.53
66398;BME280;54877;51.504;3.894;2024-03-07T08:00:39;102439.56;;;7.85;73.11
66398;BME280;54877;51.504;3.894;2024-03-07T08:03:05;102449.31;;;7.80;73.20
66398;BME280;54877;51.504;3.894;2024-03-07T08:05:34;102439.47;;;7.94;73.07
66398;BME280;54877;51.504;3.894;2024-03-07T08:08:01;102436.81;;;7.93;72.79
66398;BME280;54877;51.504;3.894;2024-03-07T08:10:29;102440.25;;;7.99;72.95
66398;BME280;54877;51.504;3.894;2024-03-07T08:13:01;102430.78;;;7.86;73.17
66398;BME280;54877;51.504;3.894;2024-03-07T08:15:29;102433.38;;;7.89;73.12
66398;BME280;54877;51.504;3.894;2024-03-07T08:17:58;102432.31;;;8.02;72.98
66398;BME280;54877;51.504;3.894;2024-03-07T08:20:25;102430.34;;;8.16;72.67
66398;BME280;54877;51.504;3.894;2024-03-07T08:22:52;102425.03;;;8.18;72.43
66398;BME280;54877;51.504;3.894;2024-03-07T08:25:22;102431.22;;;8.17;72.31
66398;BME280;54877;51.504;3.894;2024-03-07T08:27:50;102430.22;;;8.27;72.48
66398;BME280;54877;51.504;3.894;2024-03-07T08:30:16;102423.94;;;8.36;72.17
66398;BME280;54877;51.504;3.894;2024-03-07T08:32:43;102425.56;;;8.43;71.84
66398;BME280;54877;51.504;3.894;2024-03-07T08:35:10;102428.03;;;8.55;71.99
66398;BME280;54877;51.504;3.894;2024-03-07T08:37:37;102424.47;;;8.59;71.72
66398;BME280;54877;51.504;3.894;2024-03-07T08:40:03;102422.47;;;8.71;70.98
66398;BME280;54877;51.504;3.894;2024-03-07T08:42:31;102428.88;;;8.58;71.20
66398;BME280;54877;51.504;3.894;2024-03-07T08:44:58;102422.44;;;8.73;71.10
66398;BME280;54877;51.504;3.894;2024-03-07T08:47:24;102424.97;;;8.80;71.09
66398;BME280;54877;51.504;3.894;2024-03-07T08:49:49;102423.06;;;8.87;71.03
66398;BME280;54877;51.504;3.894;2024-03-07T08:52:16;102429.41;;;8.77;70.06
66398;BME280;54877;51.504;3.894;2024-03-07T08:54:41;102425.22;;;8.65;70.05
66398;BME280;54877;51.504;3.894;2024-03-07T08:57:07;102427.72;;;8.73;70.29
66398;BME280;54877;51.504;3.894;2024-03-07T08:59:32;102422.25;;;8.85;70.06
66398;BME280;54877;51.504;3.894;2024-03-07T09:01:58;102426.44;;;8.95;70.10
66398;BME280;54877;51.504;3.894;2024-03-07T09:04:26;102424.63;;;9.00;69.61
66398;BME280;54877;51.504;3.894;2024-03-07T09:06:52;102421.13;;;8.98;69.44
66398;BME280;54877;51.504;3.894;2024-03-07T09:09:17;102414.78;;;9.07;69.12
66398;BME280;54877;51.504;3.894;2024-03-07T09:11:43;102417.38;;;9.11;68.39
66398;BME280;54877;51.504;3.894;2024-03-07T09:14:09;102408.38;;;9.21;68.47
66398;BME280;54877;51.504;3.894;2024-03-07T09:16:35;102403.06;;;9.21;68.13
66398;BME280;54877;51.504;3.894;2024-03-07T09:19:01;102408.25;;;9.27;68.31
66398;BME280;54877;51.504;3.894;2024-03-07T09:21:26;102407.03;;;9.43;67.98
66398;BME280;54877;51.504;3.894;2024-03-07T09:23:51;102404.47;;;9.39;67.24
66398;BME280;54877;51.504;3.894;2024-03-07T09:26:17;102402.97;;;9.27;67.35
66398;BME280;54877;51.504;3.894;2024-03-07T09:28:42;102403.63;;;9.37;67.29
66398;BME280;54877;51.504;3.894;2024-03-07T09:31:08;102395.00;;;9.29;67.26
66398;BME280;54877;51.504;3.894;2024-03-07T09:33:33;102390.19;;;9.48;66.92
66398;BME280;54877;51.504;3.894;2024-03-07T09:35:59;102392.81;;;9.49;66.56
66398;BME280;54877;51.504;3.894;2024-03-07T09:38:24;102391.66;;;9.64;66.46
66398;BME280;54877;51.504;3.894;2024-03-07T09:40:50;102390.72;;;9.65;66.02
66398;BME280;54877;51.504;3.894;2024-03-07T09:43:15;102397.53;;;9.76;65.58
66398;BME280;54877;51.504;3.894;2024-03-07T09:45:44;102395.72;;;9.78;64.87
66398;BME280;54877;51.504;3.894;2024-03-07T09:48:12;102386.59;;;9.93;64.54
66398;BME280;54877;51.504;3.894;2024-03-07T09:50:38;102389.03;;;10.02;64.51
66398;BME280;54877;51.504;3.894;2024-03-07T09:53:05;102393.84;;;10.23;64.12
66398;BME280;54877;51.504;3.894;2024-03-07T09:55:31;102388.41;;;10.29;63.60
66398;BME280;54877;51.504;3.894;2024-03-07T09:57:56;102390.72;;;10.43;63.19
66398;BME280;54877;51.504;3.894;2024-03-07T10:00:25;102380.75;;;10.52;63.23
66398;BME280;54877;51.504;3.894;2024-03-07T10:02:53;102387.59;;;10.63;61.99
66398;BME280;54877;51.504;3.894;2024-03-07T10:05:22;102376.13;;;10.62;61.89
66398;BME280;54877;51.504;3.894;2024-03-07T10:07:50;102374.00;;;10.75;61.76
66398;BME280;54877;51.504;3.894;2024-03-07T10:10:17;102376.44;;;10.84;61.24
66398;BME280;54877;51.504;3.894;2024-03-07T10:12:43;102367.50;;;10.88;60.99
66398;BME280;54877;51.504;3.894;2024-03-07T10:15:08;102362.88;;;10.94;59.73
66398;BME280;54877;51.504;3.894;2024-03-07T10:17:38;102361.13;;;10.95;59.69
66398;BME280;54877;51.504;3.894;2024-03-07T10:20:04;102367.66;;;10.82;59.21
66398;BME280;54877;51.504;3.894;2024-03-07T10:22:34;102366.25;;;11.01;59.43
66398;BME280;54877;51.504;3.894;2024-03-07T10:25:01;102358.38;;;10.98;58.76
66398;BME280;54877;51.504;3.894;2024-03-07T10:27:28;102353.00;;;11.01;57.78
66398;BME280;54877;51.504;3.894;2024-03-07T10:29:54;102351.00;;;11.09;57.53
66398;BME280;54877;51.504;3.894;2024-03-07T10:32:21;102349.09;;;11.14;57.05
66398;BME280;54877;51.504;3.894;2024-03-07T10:34:51;102348.09;;;11.18;57.31
66398;BME280;54877;51.504;3.894;2024-03-07T10:37:17;102341.28;;;11.40;56.96
66398;BME280;54877;51.504;3.894;2024-03-07T10:39:44;102335.69;;;11.49;57.05
66398;BME280;54877;51.504;3.894;2024-03-07T10:42:10;102338.88;;;11.60;57.43
66398;BME280;54877;51.504;3.894;2024-03-07T10:44:40;102340.63;;;11.61;56.78
66398;BME280;54877;51.504;3.894;2024-03-07T10:47:16;102339.91;;;11.56;55.95
66398;BME280;54877;51.504;3.894;2024-03-07T10:52:58;102335.31;;;11.61;55.59
66398;BME280;54877;51.504;3.894;2024-03-07T10:55:51;102333.66;;;11.57;55.66
66398;BME280;54877;51.504;3.894;2024-03-07T10:58:27;102329.72;;;11.43;55.72
66398;BME280;54877;51.504;3.894;2024-03-07T11:01:02;102324.34;;;11.44;55.86
66398;BME280;54877;51.504;3.894;2024-03-07T11:03:34;102326.19;;;11.42;55.60
66398;BME280;54877;51.504;3.894;2024-03-07T11:06:00;102319.31;;;11.35;55.72
66398;BME280;54877;51.504;3.894;2024-03-07T11:08:31;102318.22;;;11.42;55.62
66398;BME280;54877;51.504;3.894;2024-03-07T11:10:59;102314.66;;;11.43;55.89
66398;BME280;54877;51.504;3.894;2024-03-07T11:13:24;102317.84;;;11.54;55.33
66398;BME280;54877;51.504;3.894;2024-03-07T11:15:51;102303.25;;;11.70;55.62
66398;BME280;54877;51.504;3.894;2024-03-07T11:18:22;102304.78;;;11.77;54.83
66398;BME280;54877;51.504;3.894;2024-03-07T11:20:49;102297.34;;;11.89;54.07
66398;BME280;54877;51.504;3.894;2024-03-07T11:23:30;102291.13;;;11.90;54.12
66398;BME280;54877;51.504;3.894;2024-03-07T11:26:06;102282.38;;;12.14;53.93
66398;BME280;54877;51.504;3.894;2024-03-07T11:28:40;102296.97;;;12.01;52.76
66398;BME280;54877;51.504;3.894;2024-03-07T11:31:13;102283.38;;;11.84;52.65
66398;BME280;54877;51.504;3.894;2024-03-07T11:33:40;102275.22;;;11.90;52.35
66398;BME280;54877;51.504;3.894;2024-03-07T11:36:09;102274.66;;;12.06;53.03
66398;BME280;54877;51.504;3.894;2024-03-07T11:38:37;102269.44;;;12.03;52.90
66398;BME280;54877;51.504;3.894;2024-03-07T11:41:03;102261.56;;;12.26;52.96
66398;BME280;54877;51.504;3.894;2024-03-07T11:43:31;102263.31;;;12.27;52.00
66398;BME280;54877;51.504;3.894;2024-03-07T11:45:57;102251.63;;;12.33;52.32
66398;BME280;54877;51.504;3.894;2024-03-07T11:48:24;102259.19;;;12.19;52.61
66398;BME280;54877;51.504;3.894;2024-03-07T11:50:49;102246.72;;;12.21;53.35
66398;BME280;54877;51.504;3.894;2024-03-07T11:53:15;102243.25;;;12.19;52.93
66398;BME280;54877;51.504;3.894;2024-03-07T11:55:41;102238.47;;;12.04;52.62
66398;BME280;54877;51.504;3.894;2024-03-07T11:58:13;102235.69;;;12.07;53.12
66398;BME280;54877;51.504;3.894;2024-03-07T12:00:41;102228.84;;;12.01;53.21
66398;BME280;54877;51.504;3.894;2024-03-07T12:03:10;102228.50;;;12.10;53.21
66398;BME280;54877;51.504;3.894;2024-03-07T12:05:41;102230.19;;;12.13;53.52
66398;BME280;54877;51.504;3.894;2024-03-07T12:08:07;102231.00;;;12.15;53.52
66398;BME280;54877;51.504;3.894;2024-03-07T12:10:34;102225.81;;;12.12;53.01
66398;BME280;54877;51.504;3.894;2024-03-07T12:13:01;102223.75;;;12.20;53.25
66398;BME280;54877;51.504;3.894;2024-03-07T12:15:26;102219.25;;;12.22;53.08
66398;BME280;54877;51.504;3.894;2024-03-07T12:17:52;102220.66;;;12.32;53.47
66398;BME280;54877;51.504;3.894;2024-03-07T12:20:18;102213.28;;;12.40;52.35
66398;BME280;54877;51.504;3.894;2024-03-07T12:22:52;102205.31;;;12.40;52.60
66398;BME280;54877;51.504;3.894;2024-03-07T12:25:21;102209.50;;;12.47;53.30
66398;BME280;54877;51.504;3.894;2024-03-07T12:27:59;102199.25;;;12.61;52.92
66398;BME280;54877;51.504;3.894;2024-03-07T12:30:30;102197.28;;;12.66;52.17
66398;BME280;54877;51.504;3.894;2024-03-07T12:33:03;102190.34;;;12.62;52.10
66398;BME280;54877;51.504;3.894;2024-03-07T12:35:29;102194.81;;;12.62;52.38
66398;BME280;54877;51.504;3.894;2024-03-07T12:37:56;102187.34;;;12.71;52.75
66398;BME280;54877;51.504;3.894;2024-03-07T12:40:22;102183.19;;;12.64;51.34
66398;BME280;54877;51.504;3.894;2024-03-07T12:42:50;102178.94;;;12.83;51.15
66398;BME280;54877;51.504;3.894;2024-03-07T12:45:18;102181.13;;;12.72;52.00
66398;BME280;54877;51.504;3.894;2024-03-07T12:47:46;102179.94;;;12.79;52.50
66398;BME280;54877;51.504;3.894;2024-03-07T12:50:18;102167.19;;;12.89;52.15
66398;BME280;54877;51.504;3.894;2024-03-07T12:52:47;102162.59;;;12.92;51.99
66398;BME280;54877;51.504;3.894;2024-03-07T12:55:17;102164.47;;;12.90;50.08
66398;BME280;54877;51.504;3.894;2024-03-07T12:57:48;102164.66;;;12.86;49.99
66398;BME280;54877;51.504;3.894;2024-03-07T13:00:15;102155.81;;;12.85;50.22